sensor_id;sensor_type;location;lat;lon;timestamp;pressure;altitude;pressure_sealevel;temperature;humidity
21240;BME280;10778;48.962;9.018;2023-03-14T00:01:58;97393.72;;;9.18;100.00
21240;BME280;10778;48.962;9.018;2023-03-14T00:04:24;97404.22;;;9.18;100.00
21240;BME280;10778;48.962;9.018;2023-03-14T00:06:50;97409.97;;;9.13;100.00
21240;BME280;10778;48.962;9.018;2023-03-14T00:09:16;97414.03;;;9.16;100.00
21240;BME280;10778;48.962;9.018;2023-03-14T00:11:43;97417.47;;;9.24;100.00
21240;BME280;10778;48.962;9.018;2023-03-14T00:14:09;97420.09;;;9.24;100.00
21240;BME280;10778;48.962;9.018;2023-03-14T00:16:35;97404.34;;;9.24;100.00
21240;BME280;10778;48.962;9.018;2023-03-14T00:19:01;97403.66;;;9.22;100.00
21240;BME280;10778;48.962;9.018;2023-03-14T00:21:27;97416.34;;;9.19;100.00
21240;BME280;10778;48.962;9.018;2023-03-14T00:23:53;97420.75;;;9.18;100.00
21240;BME280;10778;48.962;9.018;2023-03-14T00:26:20;97413.38;;;9.14;100.00
21240;BME280;10778;48.962;9.018;2023-03-14T00:28:51;97405.16;;;9.25;100.00
21240;BME280;10778;48.962;9.018;2023-03-14T00:31:17;97404.00;;;9.19;100.00
21240;BME280;10778;48.962;9.018;2023-03-14T00:33:44;97410.09;;;9.20;100.00
21240;BME280;10778;48.962;9.018;2023-03-14T00:36:15;97416.00;;;9.14;100.00
21240;BME280;10778;48.962;9.018;2023-03-14T00:38:43;97421.09;;;9.15;100.00
21240;BME280;10778;48.962;9.018;2023-03-14T00:41:12;97419.97;;;9.09;100.00
21240;BME280;10778;48.962;9.018;2023-03-14T00:43:39;97427.88;;;9.01;100.00
21240;BME280;10778;48.962;9.018;2023-03-14T00:46:05;97425.41;;;9.08;100.00
21240;BME280;10778;48.962;9.018;2023-03-14T00:48:31;97423.75;;;9.07;100.00
21240;BME280;10778;48.962;9.018;2023-03-14T00:50:57;97428.13;;;9.15;100.00
21240;BME280;10778;48.962;9.018;2023-03-14T00:53:23;97424.53;;;9.16;100.00
21240;BME280;10778;48.962;9.018;2023-03-14T00:55:50;97435.69;;;9.18;100.00
21240;BME280;10778;48.962;9.018;2023-03-14T00:58:17;97439.16;;;9.10;100.00
21240;BME280;10778;48.962;9.018;2023-03-14T01:00:44;97439.91;;;9.27;100.00
21240;BME280;10778;48.962;9.018;2023-03-14T01:03:11;97442.38;;;9.20;100.00
21240;BME280;10778;48.962;9.018;2023-03-14T01:05:38;97453.06;;;9.19;100.00
21240;BME280;10778;48.962;9.018;2023-03-14T01:08:05;97454.84;;;9.27;100.00
21240;BME280;10778;48.962;9.018;2023-03-14T01:10:37;97451.88;;;9.21;100.00
21240;BME280;10778;48.962;9.018;2023-03-14T01:13:04;97446.34;;;9.16;100.00
21240;BME280;10778;48.962;9.018;2023-03-14T01:15:35;97445.84;;;9.21;100.00
21240;BME280;10778;48.962;9.018;2023-03-14T01:18:01;97444.16;;;9.28;100.00
21240;BME280;10778;48.962;9.018;2023-03-14T01:20:28;97440.25;;;9.16;100.00
21240;BME280;10778;48.962;9.018;2023-03-14T01:22:54;97440.41;;;9.22;100.00
21240;BME280;10778;48.962;9.018;2023-03-14T01:25:20;97431.72;;;9.22;100.00
21240;BME280;10778;48.962;9.018;2023-03-14T01:27:47;97419.91;;;9.26;100.00
21240;BME280;10778;48.962;9.018;2023-03-14T01:30:14;97417.13;;;9.28;100.00
21240;BME280;10778;48.962;9.018;2023-03-14T01:32:40;97400.72;;;9.25;100.00
21240;BME280;10778;48.962;9.018;2023-03-14T01:35:07;97392.19;;;9.23;100.00
21240;BME280;10778;48.962;9.018;2023-03-14T01:37:33;97372.66;;;9.26;100.00
21240;BME280;10778;48.962;9.018;2023-03-14T01:40:00;97361.19;;;9.27;100.00
21240;BME280;10778;48.962;9.018;2023-03-14T01:42:26;97359.06;;;9.22;100.00
21240;BME280;10778;48.962;9.018;2023-03-14T01:44:56;97343.50;;;9.21;100.00
21240;BME280;10778;48.962;9.018;2023-03-14T01:47:23;97332.38;;;9.19;100.00
21240;BME280;10778;48.962;9.018;2023-03-14T01:49:54;97329.03;;;9.25;100.00
21240;BME280;10778;48.962;9.018;2023-03-14T01:52:48;97329.09;;;9.17;100.00
21240;BME280;10778;48.962;9.018;2023-03-14T01:55:21;97333.31;;;9.26;100.00
21240;BME280;10778;48.962;9.018;2023-03-14T01:57:52;97339.91;;;9.14;100.00
21240;BME280;10778;48.962;9.018;2023-03-14T02:00:22;97325.13;;;9.21;100.00
21240;BME280;10778;48.962;9.018;2023-03-14T02:03:16;97324.31;;;9.20;100.00
21240;BME280;10778;48.962;9.018;2023-03-14T02:05:42;97323.53;;;9.11;100.00
21240;BME280;10778;48.962;9.018;2023-03-14T02:08:18;97326.78;;;9.22;100.00
21240;BME280;10778;48.962;9.018;2023-03-14T02:10:54;97331.81;;;9.23;100.00
21240;BME280;10778;48.962;9.018;2023-03-14T02:13:31;97325.81;;;9.15;100.00
21240;BME280;10778;48.962;9.018;2023-03-14T02:16:16;97330.38;;;9.21;100.00
21240;BME280;10778;48.962;9.018;2023-03-14T02:18:45;97329.03;;;9.25;100.00
21240;BME280;10778;48.962;9.018;2023-03-14T02:21:49;97329.19;;;9.23;100.00
21240;BME280;10778;48.962;9.018;2023-03-14T02:24:35;97317.28;;;9.21;100.00
21240;BME280;10778;48.962;9.018;2023-03-14T02:27:14;97317.75;;;9.24;100.00
21240;BME280;10778;48.962;9.018;2023-03-14T02:29:53;97306.44;;;9.16;100.00
21240;BME280;10778;48.962;9.018;2023-03-14T02:32:22;97298.25;;;9.19;100.00
21240;BME280;10778;48.962;9.018;2023-03-14T02:34:53;97289.75;;;9.17;100.00
21240;BME280;10778;48.962;9.018;2023-03-14T02:37:23;97303.50;;;9.19;100.00
21240;BME280;10778;48.962;9.018;2023-03-14T02:39:50;97303.06;;;9.07;100.00
21240;BME280;10778;48.962;9.018;2023-03-14T02:42:17;97293.41;;;9.07;100.00
21240;BME280;10778;48.962;9.018;2023-03-14T02:47:39;97284.53;;;9.08;100.00
21240;BME280;10778;48.962;9.018;2023-03-14T02:50:11;97272.25;;;9.09;100.00
21240;BME280;10778;48.962;9.018;2023-03-14T02:52:38;97254.53;;;9.11;100.00
21240;BME280;10778;48.962;9.018;2023-03-14T02:55:04;97265.53;;;9.06;100.00
21240;BME280;10778;48.962;9.018;2023-03-14T02:57:32;97250.31;;;9.02;100.00
21240;BME280;10778;48.962;9.018;2023-03-14T02:59:59;97257.38;;;9.01;100.00
21240;BME280;10778;48.962;9.018;2023-03-14T03:02:27;97253.56;;;9.04;100.00
21240;BME280;10778;48.962;9.018;2023-03-14T03:04:53;97251.31;;;9.01;100.00
21240;BME280;10778;48.962;9.018;2023-03-14T03:07:19;97235.91;;;8.98;100.00
21240;BME280;10778;48.962;9.018;2023-03-14T03:09:46;97238.38;;;8.99;100.00
21240;BME280;10778;48.962;9.018;2023-03-14T03:12:13;97251.19;;;8.94;100.00
21240;BME280;10778;48.962;9.018;2023-03-14T03:14:39;97246.88;;;9.01;100.00
21240;BME280;10778;48.962;9.018;2023-03-14T03:17:06;97240.00;;;9.00;100.00
21240;BME280;10778;48.962;9.018;2023-03-14T03:19:33;97231.03;;;8.94;100.00
21240;BME280;10778;48.962;9.018;2023-03-14T03:21:59;97231.53;;;8.90;100.00
21240;BME280;10778;48.962;9.018;2023-03-14T03:24:26;97231.47;;;8.98;100.00
21240;BME280;10778;48.962;9.018;2023-03-14T03:26:54;97225.66;;;8.88;100.00
21240;BME280;10778;48.962;9.018;2023-03-14T03:29:20;97221.44;;;8.78;100.00
21240;BME280;10778;48.962;9.018;2023-03-14T03:31:46;97214.41;;;8.79;100.00
21240;BME280;10778;48.962;9.018;2023-03-14T03:34:13;97216.78;;;8.89;99.32
21240;BME280;10778;48.962;9.018;2023-03-14T03:36:40;97221.97;;;8.74;100.00
21240;BME280;10778;48.962;9.018;2023-03-14T03:39:06;97215.91;;;8.73;100.00
21240;BME280;10778;48.962;9.018;2023-03-14T03:41:33;97219.34;;;8.74;100.00
21240;BME280;10778;48.962;9.018;2023-03-14T03:44:00;97226.56;;;8.72;99.54
21240;BME280;10778;48.962;9.018;2023-03-14T03:46:26;97212.66;;;8.71;99.20
21240;BME280;10778;48.962;9.018;2023-03-14T03:48:56;97213.00;;;8.68;98.73
21240;BME280;10778;48.962;9.018;2023-03-14T03:51:22;97209.16;;;8.79;96.46
21240;BME280;10778;48.962;9.018;2023-03-14T03:53:49;97204.56;;;8.81;95.66
21240;BME280;10778;48.962;9.018;2023-03-14T03:56:19;97204.44;;;8.74;95.20
21240;BME280;10778;48.962;9.018;2023-03-14T03:58:45;97203.19;;;8.62;96.40
21240;BME280;10778;48.962;9.018;2023-03-14T04:01:11;97201.91;;;8.58;96.54
21240;BME280;10778;48.962;9.018;2023-03-14T04:03:37;97206.16;;;8.59;96.48
21240;BME280;10778;48.962;9.018;2023-03-14T04:06:09;97187.63;;;8.60;95.29
21240;BME280;10778;48.962;9.018;2023-03-14T04:08:38;97181.22;;;8.63;95.24
21240;BME280;10778;48.962;9.018;2023-03-14T04:11:05;97187.44;;;8.62;94.49
21240;BME280;10778;48.962;9.018;2023-03-14T04:13:49;97189.09;;;8.63;94.03
21240;BME280;10778;48.962;9.018;2023-03-14T04:16:18;97192.19;;;8.66;93.17
21240;BME280;10778;48.962;9.018;2023-03-14T04:18:44;97186.22;;;8.73;92.17
21240;BME280;10778;48.962;9.018;2023-03-14T04:21:10;97181.47;;;8.76;91.65
21240;BME280;10778;48.962;9.018;2023-03-14T04:23:44;97185.56;;;8.79;90.92
21240;BME280;10778;48.962;9.018;2023-03-14T04:26:10;97182.31;;;8.77;90.34
21240;BME280;10778;48.962;9.018;2023-03-14T04:28:36;97174.25;;;8.78;90.24
21240;BME280;10778;48.962;9.018;2023-03-14T04:33:39;97178.91;;;8.68;90.95
21240;BME280;10778;48.962;9.018;2023-03-14T04:36:07;97172.63;;;8.77;89.94
21240;BME280;10778;48.962;9.018;2023-03-14T04:38:34;97176.22;;;8.76;89.32
21240;BME280;10778;48.962;9.018;2023-03-14T04:41:00;97172.03;;;8.67;90.25
21240;BME280;10778;48.962;9.018;2023-03-14T04:43:31;97168.06;;;8.71;89.64
21240;BME280;10778;48.962;9.018;2023-03-14T04:46:06;97166.44;;;8.70;89.01
21240;BME280;10778;48.962;9.018;2023-03-14T04:48:33;97160.16;;;8.56;90.27
21240;BME280;10778;48.962;9.018;2023-03-14T04:51:00;97157.19;;;8.59;89.75
21240;BME280;10778;48.962;9.018;2023-03-14T04:53:30;97156.22;;;8.52;90.34
21240;BME280;10778;48.962;9.018;2023-03-14T04:55:58;97147.38;;;8.53;89.11
21240;BME280;10778;48.962;9.018;2023-03-14T04:58:30;97160.00;;;8.49;89.47
21240;BME280;10778;48.962;9.018;2023-03-14T05:01:02;97154.91;;;8.56;89.05
21240;BME280;10778;48.962;9.018;2023-03-14T05:03:45;97148.84;;;8.47;89.40
21240;BME280;10778;48.962;9.018;2023-03-14T05:06:33;97145.41;;;8.47;89.79
21240;BME280;10778;48.962;9.018;2023-03-14T05:09:26;97144.59;;;8.46;89.10
21240;BME280;10778;48.962;9.018;2023-03-14T05:12:17;97142.03;;;8.38;90.20
21240;BME280;10778;48.962;9.018;2023-03-14T05:15:12;97141.78;;;8.24;90.60
21240;BME280;10778;48.962;9.018;2023-03-14T05:17:58;97125.75;;;8.19;91.11
21240;BME280;10778;48.962;9.018;2023-03-14T05:20:57;97132.00;;;8.18;91.46
21240;BME280;10778;48.962;9.018;2023-03-14T05:23:46;97123.56;;;8.31;90.23
21240;BME280;10778;48.962;9.018;2023-03-14T05:26:32;97123.69;;;8.38;90.04
21240;BME280;10778;48.962;9.018;2023-03-14T05:29:17;97124.38;;;8.32;90.47
21240;BME280;10778;48.962;9.018;2023-03-14T05:31:51;97142.81;;;8.38;89.89
21240;BME280;10778;48.962;9.018;2023-03-14T05:34:40;97126.31;;;8.38;89.79
21240;BME280;10778;48.962;9.018;2023-03-14T05:37:45;97131.56;;;8.38;89.83
21240;BME280;10778;48.962;9.018;2023-03-14T05:40:17;97127.47;;;8.35;90.32
21240;BME280;10778;48.962;9.018;2023-03-14T05:42:56;97130.41;;;8.40;89.55
21240;BME280;10778;48.962;9.018;2023-03-14T05:45:48;97126.09;;;8.48;89.61
21240;BME280;10778;48.962;9.018;2023-03-14T05:48:29;97125.09;;;8.49;90.08
21240;BME280;10778;48.962;9.018;2023-03-14T05:51:01;97122.78;;;8.54;89.66
21240;BME280;10778;48.962;9.018;2023-03-14T05:53:46;97112.13;;;8.56;89.17
21240;BME280;10778;48.962;9.018;2023-03-14T05:56:31;97116.59;;;9.17;89.70
21240;BME280;10778;48.962;9.018;2023-03-14T05:59:08;97110.88;;;9.28;89.58
21240;BME280;10778;48.962;9.018;2023-03-14T06:01:44;97115.13;;;9.14;87.49
21240;BME280;10778;48.962;9.018;2023-03-14T06:04:15;97110.09;;;9.28;88.05
21240;BME280;10778;48.962;9.018;2023-03-14T06:06:45;97108.38;;;9.35;86.18
21240;BME280;10778;48.962;9.018;2023-03-14T06:09:12;97114.72;;;9.41;87.13
21240;BME280;10778;48.962;9.018;2023-03-14T06:11:42;97116.88;;;9.37;86.09
21240;BME280;10778;48.962;9.018;2023-03-14T06:14:08;97114.59;;;9.34;85.98
21240;BME280;10778;48.962;9.018;2023-03-14T06:16:35;97104.63;;;9.29;85.81
21240;BME280;10778;48.962;9.018;2023-03-14T06:19:01;97105.47;;;9.30;86.24
21240;BME280;10778;48.962;9.018;2023-03-14T06:21:28;97102.84;;;9.45;86.21
21240;BME280;10778;48.962;9.018;2023-03-14T06:23:54;97106.84;;;9.56;85.86
21240;BME280;10778;48.962;9.018;2023-03-14T06:26:21;97107.75;;;9.63;86.06
21240;BME280;10778;48.962;9.018;2023-03-14T06:28:49;97108.38;;;9.50;84.32
21240;BME280;10778;48.962;9.018;2023-03-14T06:31:17;97104.56;;;9.37;84.48
21240;BME280;10778;48.962;9.018;2023-03-14T06:33:51;97101.69;;;9.62;82.96
21240;BME280;10778;48.962;9.018;2023-03-14T06:36:18;97099.06;;;9.62;82.96
21240;BME280;10778;48.962;9.018;2023-03-14T06:38:46;97105.47;;;9.90;83.39
21240;BME280;10778;48.962;9.018;2023-03-14T06:41:13;97093.41;;;9.95;82.98
21240;BME280;10778;48.962;9.018;2023-03-14T06:43:42;97094.31;;;9.88;82.27
21240;BME280;10778;48.962;9.018;2023-03-14T06:46:09;97082.00;;;9.73;82.21
21240;BME280;10778;48.962;9.018;2023-03-14T06:48:37;97087.66;;;9.85;82.66
21240;BME280;10778;48.962;9.018;2023-03-14T06:51:03;97088.59;;;9.99;81.58
21240;BME280;10778;48.962;9.018;2023-03-14T06:53:30;97088.34;;;10.67;80.98
21240;BME280;10778;48.962;9.018;2023-03-14T06:55:59;97074.94;;;12.45;72.68
21240;BME280;10778;48.962;9.018;2023-03-14T06:58:27;97077.88;;;13.84;67.88
21240;BME280;10778;48.962;9.018;2023-03-14T07:00:53;97077.41;;;14.00;66.41
21240;BME280;10778;48.962;9.018;2023-03-14T07:03:24;97080.53;;;13.77;66.78
21240;BME280;10778;48.962;9.018;2023-03-14T07:05:53;97100.06;;;12.34;70.78
21240;BME280;10778;48.962;9.018;2023-03-14T07:08:19;97109.38;;;11.88;73.38
21240;BME280;10778;48.962;9.018;2023-03-14T07:10:45;97109.97;;;11.42;75.18
21240;BME280;10778;48.962;9.018;2023-03-14T07:13:11;97113.66;;;11.47;75.16
21240;BME280;10778;48.962;9.018;2023-03-14T07:15:49;97105.56;;;11.20;75.14
21240;BME280;10778;48.962;9.018;2023-03-14T07:18:15;97113.72;;;11.04;76.88
21240;BME280;10778;48.962;9.018;2023-03-14T07:20:41;97113.56;;;10.84;76.25
21240;BME280;10778;48.962;9.018;2023-03-14T07:23:08;97116.56;;;10.59;76.77
21240;BME280;10778;48.962;9.018;2023-03-14T07:25:38;97111.50;;;10.57;78.98
21240;BME280;10778;48.962;9.018;2023-03-14T07:28:05;97113.69;;;10.53;79.15
21240;BME280;10778;48.962;9.018;2023-03-14T07:30:31;97115.75;;;10.58;78.07
21240;BME280;10778;48.962;9.018;2023-03-14T07:32:59;97111.75;;;10.62;78.23
21240;BME280;10778;48.962;9.018;2023-03-14T07:35:25;97117.06;;;10.69;77.83
21240;BME280;10778;48.962;9.018;2023-03-14T07:37:52;97108.97;;;11.21;76.82
21240;BME280;10778;48.962;9.018;2023-03-14T07:40:23;97109.41;;;11.53;74.05
21240;BME280;10778;48.962;9.018;2023-03-14T07:42:49;97115.06;;;11.50;74.59
21240;BME280;10778;48.962;9.018;2023-03-14T07:45:26;97105.66;;;11.69;74.52
21240;BME280;10778;48.962;9.018;2023-03-14T07:47:52;97096.69;;;12.61;70.54
21240;BME280;10778;48.962;9.018;2023-03-14T07:50:20;97092.69;;;14.76;64.42
21240;BME280;10778;48.962;9.018;2023-03-14T07:52:45;97097.63;;;13.81;63.83
21240;BME280;10778;48.962;9.018;2023-03-14T07:55:11;97107.06;;;14.09;63.64
21240;BME280;10778;48.962;9.018;2023-03-14T07:57:39;97113.03;;;14.36;63.53
21240;BME280;10778;48.962;9.018;2023-03-14T08:00:05;97109.63;;;15.00;62.24
21240;BME280;10778;48.962;9.018;2023-03-14T08:02:39;97089.34;;;16.43;57.29
21240;BME280;10778;48.962;9.018;2023-03-14T08:05:05;97089.88;;;17.18;55.13
21240;BME280;10778;48.962;9.018;2023-03-14T08:07:31;97089.97;;;16.27;56.68
21240;BME280;10778;48.962;9.018;2023-03-14T08:09:57;97092.91;;;13.90;61.09
21240;BME280;10778;48.962;9.018;2023-03-14T08:12:23;97093.81;;;13.36;64.00
21240;BME280;10778;48.962;9.018;2023-03-14T08:14:49;97092.81;;;12.77;67.45
21240;BME280;10778;48.962;9.018;2023-03-14T08:17:15;97093.16;;;14.27;62.75
21240;BME280;10778;48.962;9.018;2023-03-14T08:19:41;97065.03;;;15.41;58.47
21240;BME280;10778;48.962;9.018;2023-03-14T08:22:07;97066.84;;;17.00;55.23
21240;BME280;10778;48.962;9.018;2023-03-14T08:24:34;97063.34;;;15.84;57.13
21240;BME280;10778;48.962;9.018;2023-03-14T08:27:00;97061.78;;;16.44;55.62
21240;BME280;10778;48.962;9.018;2023-03-14T08:29:26;97063.78;;;16.61;55.54
21240;BME280;10778;48.962;9.018;2023-03-14T08:31:52;97064.31;;;16.39;55.00
21240;BME280;10778;48.962;9.018;2023-03-14T08:34:18;97076.69;;;17.00;54.89
21240;BME280;10778;48.962;9.018;2023-03-14T08:36:44;97073.44;;;15.13;56.15
21240;BME280;10778;48.962;9.018;2023-03-14T08:39:10;97096.84;;;15.78;58.38
21240;BME280;10778;48.962;9.018;2023-03-14T08:41:36;97079.72;;;14.93;58.09
21240;BME280;10778;48.962;9.018;2023-03-14T08:44:06;97076.19;;;16.79;54.32
21240;BME280;10778;48.962;9.018;2023-03-14T08:46:33;97093.34;;;15.22;58.28
21240;BME280;10778;48.962;9.018;2023-03-14T08:48:59;97113.31;;;13.62;62.78
21240;BME280;10778;48.962;9.018;2023-03-14T08:51:25;97113.56;;;13.27;63.98
21240;BME280;10778;48.962;9.018;2023-03-14T08:53:51;97110.50;;;13.17;65.66
21240;BME280;10778;48.962;9.018;2023-03-14T08:56:17;97118.22;;;12.85;66.84
21240;BME280;10778;48.962;9.018;2023-03-14T08:58:43;97140.53;;;12.69;66.69
21240;BME280;10778;48.962;9.018;2023-03-14T09:01:10;97145.31;;;11.96;71.09
21240;BME280;10778;48.962;9.018;2023-03-14T09:03:37;97155.72;;;11.69;74.92
21240;BME280;10778;48.962;9.018;2023-03-14T09:06:08;97166.38;;;11.32;77.00
21240;BME280;10778;48.962;9.018;2023-03-14T09:08:35;97175.31;;;11.09;79.51
21240;BME280;10778;48.962;9.018;2023-03-14T09:11:02;97168.84;;;10.90;80.28
21240;BME280;10778;48.962;9.018;2023-03-14T09:13:28;97178.25;;;10.78;80.73
21240;BME280;10778;48.962;9.018;2023-03-14T09:15:55;97183.88;;;10.75;80.69
21240;BME280;10778;48.962;9.018;2023-03-14T09:18:22;97177.50;;;10.84;81.46
21240;BME280;10778;48.962;9.018;2023-03-14T09:20:48;97177.19;;;10.72;80.00
21240;BME280;10778;48.962;9.018;2023-03-14T09:23:15;97181.53;;;10.80;80.19
21240;BME280;10778;48.962;9.018;2023-03-14T09:25:41;97175.19;;;10.74;81.43
21240;BME280;10778;48.962;9.018;2023-03-14T09:28:07;97179.13;;;10.85;81.04
21240;BME280;10778;48.962;9.018;2023-03-14T09:30:33;97189.09;;;10.90;81.71
21240;BME280;10778;48.962;9.018;2023-03-14T09:32:59;97192.84;;;10.80;79.68
21240;BME280;10778;48.962;9.018;2023-03-14T09:35:25;97194.41;;;10.75;80.50
21240;BME280;10778;48.962;9.018;2023-03-14T09:37:51;97196.78;;;10.70;81.11
21240;BME280;10778;48.962;9.018;2023-03-14T09:40:18;97200.56;;;10.82;79.49
21240;BME280;10778;48.962;9.018;2023-03-14T09:42:48;97204.00;;;10.82;78.88
21240;BME280;10778;48.962;9.018;2023-03-14T09:45:24;97194.59;;;10.73;79.87
21240;BME280;10778;48.962;9.018;2023-03-14T09:47:52;97203.13;;;10.75;80.03
21240;BME280;10778;48.962;9.018;2023-03-14T09:50:19;97195.31;;;10.82;79.75
21240;BME280;10778;48.962;9.018;2023-03-14T09:52:56;97192.75;;;10.89;80.16
21240;BME280;10778;48.962;9.018;2023-03-14T09:55:22;97193.69;;;11.03;78.97
21240;BME280;10778;48.962;9.018;2023-03-14T09:57:51;97197.50;;;11.22;78.57
21240;BME280;10778;48.962;9.018;2023-03-14T10:00:23;97192.28;;;11.29;77.21
21240;BME280;10778;48.962;9.018;2023-03-14T10:05:38;97167.44;;;12.44;74.99
21240;BME280;10778;48.962;9.018;2023-03-14T10:08:04;97152.69;;;12.70;72.13
21240;BME280;10778;48.962;9.018;2023-03-14T10:10:31;97162.84;;;12.73;72.53
21240;BME280;10778;48.962;9.018;2023-03-14T10:15:37;97168.53;;;11.79;73.96
21240;BME280;10778;48.962;9.018;2023-03-14T10:18:05;97165.66;;;11.74;74.78
21240;BME280;10778;48.962;9.018;2023-03-14T10:20:44;97171.81;;;11.88;75.03
21240;BME280;10778;48.962;9.018;2023-03-14T10:25:41;97165.69;;;12.09;75.09
21240;BME280;10778;48.962;9.018;2023-03-14T10:28:23;97169.63;;;11.98;73.67
21240;BME280;10778;48.962;9.018;2023-03-14T10:30:49;97168.22;;;11.95;74.62
21240;BME280;10778;48.962;9.018;2023-03-14T10:33:31;97165.75;;;11.94;75.15
21240;BME280;10778;48.962;9.018;2023-03-14T10:38:32;97177.06;;;11.81;78.82
21240;BME280;10778;48.962;9.018;2023-03-14T10:40:58;97184.34;;;11.79;81.14
21240;BME280;10778;48.962;9.018;2023-03-14T10:43:30;97188.94;;;11.42;82.19
21240;BME280;10778;48.962;9.018;2023-03-14T10:45:59;97204.41;;;11.23;82.22
21240;BME280;10778;48.962;9.018;2023-03-14T10:48:32;97204.06;;;10.89;86.26
21240;BME280;10778;48.962;9.018;2023-03-14T10:51:11;97204.19;;;10.81;88.29
21240;BME280;10778;48.962;9.018;2023-03-14T10:56:12;97217.22;;;10.52;89.14
21240;BME280;10778;48.962;9.018;2023-03-14T10:58:42;97221.31;;;10.40;89.78
21240;BME280;10778;48.962;9.018;2023-03-14T11:01:22;97209.00;;;10.25;91.10
21240;BME280;10778;48.962;9.018;2023-03-14T11:04:13;97214.06;;;10.27;91.25
21240;BME280;10778;48.962;9.018;2023-03-14T11:07:03;97227.94;;;10.21;91.67
21240;BME280;10778;48.962;9.018;2023-03-14T11:12:49;97221.50;;;10.23;94.65
21240;BME280;10778;48.962;9.018;2023-03-14T11:21:13;97218.88;;;10.23;95.49
21240;BME280;10778;48.962;9.018;2023-03-14T11:26:42;97227.84;;;10.29;94.53
21240;BME280;10778;48.962;9.018;2023-03-14T11:29:20;97222.56;;;10.14;96.39
21240;BME280;10778;48.962;9.018;2023-03-14T11:31:47;97222.94;;;10.11;96.24
21240;BME280;10778;48.962;9.018;2023-03-14T11:34:25;97220.84;;;10.06;94.89
21240;BME280;10778;48.962;9.018;2023-03-14T11:36:59;97225.03;;;10.01;93.28
21240;BME280;10778;48.962;9.018;2023-03-14T11:39:31;97234.47;;;10.10;92.67
21240;BME280;10778;48.962;9.018;2023-03-14T11:42:02;97232.28;;;10.14;92.61
21240;BME280;10778;48.962;9.018;2023-03-14T11:44:37;97234.56;;;10.17;92.39
21240;BME280;10778;48.962;9.018;2023-03-14T11:47:08;97250.38;;;10.08;90.27
21240;BME280;10778;48.962;9.018;2023-03-14T11:49:56;97253.28;;;9.99;91.99
21240;BME280;10778;48.962;9.018;2023-03-14T11:57:28;97270.19;;;9.66;90.68
21240;BME280;10778;48.962;9.018;2023-03-14T12:02:51;97275.56;;;9.49;95.93
21240;BME280;10778;48.962;9.018;2023-03-14T12:10:49;97300.06;;;9.65;95.45
21240;BME280;10778;48.962;9.018;2023-03-14T12:13:16;97307.09;;;9.64;95.91
21240;BME280;10778;48.962;9.018;2023-03-14T12:15:54;97318.44;;;9.65;96.48
21240;BME280;10778;48.962;9.018;2023-03-14T12:18:27;97327.53;;;9.31;96.27
21240;BME280;10778;48.962;9.018;2023-03-14T12:21:01;97348.44;;;9.16;97.86
21240;BME280;10778;48.962;9.018;2023-03-14T12:23:41;97338.84;;;9.08;95.95
21240;BME280;10778;48.962;9.018;2023-03-14T12:28:38;97369.97;;;8.63;89.73
21240;BME280;10778;48.962;9.018;2023-03-14T12:36:54;97426.34;;;8.25;87.95
21240;BME280;10778;48.962;9.018;2023-03-14T12:39:30;97428.34;;;7.99;88.34
21240;BME280;10778;48.962;9.018;2023-03-14T12:42:05;97463.66;;;7.94;88.04
21240;BME280;10778;48.962;9.018;2023-03-14T12:44:39;97477.22;;;7.81;85.32
21240;BME280;10778;48.962;9.018;2023-03-14T12:49:46;97460.88;;;8.04;82.64
21240;BME280;10778;48.962;9.018;2023-03-14T12:52:19;97448.28;;;8.08;81.55
21240;BME280;10778;48.962;9.018;2023-03-14T12:54:51;97461.56;;;8.31;79.85
21240;BME280;10778;48.962;9.018;2023-03-14T12:59:58;97476.25;;;8.99;75.21
21240;BME280;10778;48.962;9.018;2023-03-14T13:02:38;97476.38;;;9.85;70.75
21240;BME280;10778;48.962;9.018;2023-03-14T13:05:19;97482.44;;;9.86;68.38
21240;BME280;10778;48.962;9.018;2023-03-14T13:10:22;97495.88;;;10.14;62.87
21240;BME280;10778;48.962;9.018;2023-03-14T13:12:50;97508.25;;;10.05;60.94
21240;BME280;10778;48.962;9.018;2023-03-14T13:17:46;97540.31;;;9.21;60.87
21240;BME280;10778;48.962;9.018;2023-03-14T13:20:50;97542.44;;;9.25;58.02
21240;BME280;10778;48.962;9.018;2023-03-14T13:23:29;97567.81;;;9.42;58.47
21240;BME280;10778;48.962;9.018;2023-03-14T13:25:56;97569.31;;;9.19;56.94
21240;BME280;10778;48.962;9.018;2023-03-14T13:28:22;97585.44;;;9.73;56.87
21240;BME280;10778;48.962;9.018;2023-03-14T13:30:50;97580.03;;;9.58;55.73
21240;BME280;10778;48.962;9.018;2023-03-14T13:33:21;97599.91;;;9.68;55.12
21240;BME280;10778;48.962;9.018;2023-03-14T13:35:54;97599.84;;;9.85;54.28
21240;BME280;10778;48.962;9.018;2023-03-14T13:38:23;97609.91;;;9.57;54.32
21240;BME280;10778;48.962;9.018;2023-03-14T13:40:51;97616.03;;;9.32;55.55
21240;BME280;10778;48.962;9.018;2023-03-14T13:43:27;97625.13;;;9.78;55.14
21240;BME280;10778;48.962;9.018;2023-03-14T13:45:56;97637.97;;;9.64;56.17
21240;BME280;10778;48.962;9.018;2023-03-14T13:48:28;97641.94;;;9.52;56.99
21240;BME280;10778;48.962;9.018;2023-03-14T13:51:04;97657.09;;;9.17;56.06
21240;BME280;10778;48.962;9.018;2023-03-14T13:53:32;97672.66;;;9.43;55.66
21240;BME280;10778;48.962;9.018;2023-03-14T13:56:02;97672.97;;;9.48;55.04
21240;BME280;10778;48.962;9.018;2023-03-14T13:58:30;97686.44;;;9.45;54.89
21240;BME280;10778;48.962;9.018;2023-03-14T14:01:02;97710.03;;;9.62;53.17
21240;BME280;10778;48.962;9.018;2023-03-14T14:03:36;97702.84;;;9.14;51.62
21240;BME280;10778;48.962;9.018;2023-03-14T14:06:05;97744.09;;;8.87;52.54
21240;BME280;10778;48.962;9.018;2023-03-14T14:08:33;97724.78;;;9.05;51.89
21240;BME280;10778;48.962;9.018;2023-03-14T14:11:01;97745.88;;;8.78;52.78
21240;BME280;10778;48.962;9.018;2023-03-14T14:13:31;97752.28;;;8.76;53.11
21240;BME280;10778;48.962;9.018;2023-03-14T14:16:00;97761.09;;;8.58;53.19
21240;BME280;10778;48.962;9.018;2023-03-14T14:18:28;97768.28;;;8.56;54.64
21240;BME280;10778;48.962;9.018;2023-03-14T14:20:54;97797.28;;;8.63;54.09
21240;BME280;10778;48.962;9.018;2023-03-14T14:23:28;97793.53;;;8.57;53.64
21240;BME280;10778;48.962;9.018;2023-03-14T14:25:56;97783.19;;;8.29;53.07